Time;durP1;ratioP1;P1;durP2;ratioP2;P2;SDS_P1;SDS_P2;PMS_P1;PMS_P2;Temp;Humidity;BMP_temperature;BMP_pressure;BME280_temperature;BME280_humidity;BME280_pressure;Samples;Min_cycle;Max_cycle;Signal;HPM_P1;HPM_P2
2022/01/28 00:01:04;;;;;;;11.38;5.97;;;;;;;;;;4983071;28;20134;-79
2022/01/28 00:03:32;;;;;;;10.88;5.85;;;;;;;;;;4982945;28;20129;-78
2022/01/28 00:05:59;;;;;;;10.07;5.25;;;;;;;;;;4983073;28;20090;-79
2022/01/28 00:08:27;;;;;;;12.25;6.75;;;;;;;;;;4984115;28;20491;-76
2022/01/28 00:10:54;;;;;;;13.40;6.47;;;;;;;;;;4992371;28;20170;-76
2022/01/28 00:13:25;;;;;;;13.07;6.10;;;;;;;;;;4989371;28;20055;-77
2022/01/28 00:38:10;;;;;;;12.07;5.75;;;;;;;;;;4968613;29;20054;-78
2022/01/28 00:40:38;;;;;;;9.93;4.82;;;;;;;;;;4963991;29;20203;-79
2022/01/28 00:43:06;;;;;;;11.10;5.53;;;;;;;;;;4968727;28;20047;-77
2022/01/28 00:45:33;;;;;;;9.38;4.78;;;;;;;;;;4976780;28;20051;-77
2022/01/28 00:48:01;;;;;;;9.82;5.28;;;;;;;;;;4974709;28;20051;-78
2022/01/28 00:50:28;;;;;;;9.95;5.68;;;;;;;;;;4976264;28;20128;-77
2022/01/28 00:52:55;;;;;;;10.38;5.65;;;;;;;;;;4994464;28;20057;-77
2022/01/28 00:55:21;;;;;;;9.43;5.55;;;;;;;;;;4994582;28;20061;-78
2022/01/28 00:57:50;;;;;;;11.25;5.50;;;;;;;;;;4992728;28;20051;-78
2022/01/28 01:00:17;;;;;;;9.40;6.10;;;;;;;;;;4993716;28;20104;-78
2022/01/28 01:02:44;;;;;;;11.55;6.00;;;;;;;;;;4993674;28;20050;-78
2022/01/28 01:05:11;;;;;;;13.27;6.50;;;;;;;;;;4985415;28;20051;-79
2022/01/28 01:07:38;;;;;;;10.23;5.63;;;;;;;;;;4983134;28;20058;-77
2022/01/28 01:10:07;;;;;;;12.38;7.13;;;;;;;;;;4982378;28;20050;-79
2022/01/28 01:12:40;;;;;;;14.40;7.20;;;;;;;;;;4982361;28;20058;-78
2022/01/28 01:15:09;;;;;;;11.52;6.65;;;;;;;;;;4982157;28;20057;-78
2022/01/28 01:17:39;;;;;;;11.70;7.13;;;;;;;;;;4983688;28;20110;-78
2022/01/28 01:20:20;;;;;;;10.75;5.88;;;;;;;;;;4989887;28;20050;-77
2022/01/28 01:22:54;;;;;;;12.93;6.53;;;;;;;;;;4983908;28;20487;-78
2022/01/28 01:25:27;;;;;;;12.48;7.18;;;;;;;;;;4980971;28;20059;-78
2022/01/28 01:27:56;;;;;;;11.48;6.20;;;;;;;;;;4980196;28;20078;-79
2022/01/28 01:30:28;;;;;;;12.38;6.75;;;;;;;;;;4981091;28;20129;-79
2022/01/28 01:32:55;;;;;;;12.73;6.78;;;;;;;;;;4980314;28;20054;-78
2022/01/28 01:35:22;;;;;;;13.30;6.65;;;;;;;;;;4980565;28;20047;-79
2022/01/28 01:37:49;;;;;;;14.52;6.47;;;;;;;;;;4980046;28;20469;-78
2022/01/28 01:40:24;;;;;;;12.05;7.47;;;;;;;;;;4979968;28;20043;-78
2022/01/28 01:43:03;;;;;;;15.88;6.90;;;;;;;;;;4980381;28;20051;-78
2022/01/28 01:53:47;;;;;;;13.98;6.72;;;;;;;;;;4979907;28;20473;-78
2022/01/28 01:56:14;;;;;;;12.88;7.13;;;;;;;;;;4982376;28;20047;-79
2022/01/28 01:58:41;;;;;;;14.45;7.40;;;;;;;;;;4981043;28;20050;-79
2022/01/28 02:01:10;;;;;;;14.20;7.55;;;;;;;;;;4981853;28;20047;-79
2022/01/28 02:03:37;;;;;;;17.25;8.10;;;;;;;;;;4981462;28;20057;-79
2022/01/28 02:06:04;;;;;;;14.43;6.47;;;;;;;;;;4982613;28;20058;-78
2022/01/28 02:08:33;;;;;;;13.10;6.30;;;;;;;;;;4981452;28;20058;-79
2022/01/28 02:11:00;;;;;;;12.75;6.75;;;;;;;;;;4982036;28;20054;-79
2022/01/28 02:13:29;;;;;;;13.82;6.80;;;;;;;;;;4983831;28;20054;-78
2022/01/28 02:15:58;;;;;;;14.10;7.13;;;;;;;;;;4983652;28;20053;-78
2022/01/28 02:18:27;;;;;;;15.57;6.95;;;;;;;;;;4983045;28;20074;-79
2022/01/28 02:21:02;;;;;;;14.43;7.50;;;;;;;;;;4981559;28;20082;-79
2022/01/28 02:23:29;;;;;;;16.45;7.80;;;;;;;;;;4981682;28;20051;-79
2022/01/28 02:25:57;;;;;;;16.13;7.70;;;;;;;;;;4982114;28;20054;-79
2022/01/28 02:28:26;;;;;;;12.82;6.50;;;;;;;;;;4980986;28;20078;-79
2022/01/28 02:30:53;;;;;;;14.50;8.10;;;;;;;;;;4982086;28;20057;-77
2022/01/28 02:33:23;;;;;;;14.30;6.28;;;;;;;;;;4982831;28;20050;-79
2022/01/28 02:35:50;;;;;;;16.00;8.15;;;;;;;;;;4986555;28;20057;-79
2022/01/28 02:38:21;;;;;;;15.63;7.03;;;;;;;;;;4985837;28;20051;-78
2022/01/28 02:40:52;;;;;;;12.82;6.90;;;;;;;;;;4985679;28;20057;-79
2022/01/28 02:43:30;;;;;;;13.43;7.07;;;;;;;;;;4982699;28;20047;-79
2022/01/28 02:46:04;;;;;;;15.20;7.50;;;;;;;;;;5009521;23;20042;-69
2022/01/28 02:48:33;;;;;;;15.27;7.15;;;;;;;;;;4992205;28;20137;-69
2022/01/28 02:51:09;;;;;;;12.98;7.07;;;;;;;;;;4992345;28;20089;-70
2022/01/28 02:53:41;;;;;;;12.73;7.55;;;;;;;;;;4995817;28;20056;-70
2022/01/28 02:56:19;;;;;;;15.48;6.78;;;;;;;;;;4996237;28;20062;-69
2022/01/28 02:58:47;;;;;;;14.20;6.93;;;;;;;;;;4996391;28;20170;-69
2022/01/28 03:01:15;;;;;;;12.90;6.30;;;;;;;;;;4996057;28;20057;-70
2022/01/28 03:03:44;;;;;;;14.10;6.28;;;;;;;;;;4996173;28;20050;-69
2022/01/28 03:06:12;;;;;;;14.52;7.03;;;;;;;;;;4996261;28;20046;-69
2022/01/28 03:08:44;;;;;;;12.55;6.13;;;;;;;;;;4995870;28;20051;-72
2022/01/28 03:14:14;;;;;;;12.82;6.13;;;;;;;;;;4987119;28;20050;-68
2022/01/28 03:16:57;;;;;;;12.98;6.18;;;;;;;;;;4995628;28;20133;-69
2022/01/28 03:19:28;;;;;;;12.38;6.63;;;;;;;;;;4996533;28;20472;-70
2022/01/28 03:21:56;;;;;;;13.23;6.38;;;;;;;;;;4995612;28;20083;-69
2022/01/28 03:24:26;;;;;;;14.68;7.18;;;;;;;;;;4995799;28;20117;-69
2022/01/28 03:26:58;;;;;;;13.32;6.80;;;;;;;;;;4995601;28;20070;-70
2022/01/28 03:29:25;;;;;;;13.90;6.45;;;;;;;;;;4995789;28;20515;-69
2022/01/28 03:31:52;;;;;;;13.95;6.40;;;;;;;;;;4995620;28;20054;-68
2022/01/28 03:34:19;;;;;;;12.57;6.97;;;;;;;;;;4995715;28;20050;-68
2022/01/28 03:36:46;;;;;;;11.80;5.80;;;;;;;;;;4995303;28;20061;-68
2022/01/28 03:39:13;;;;;;;13.25;5.85;;;;;;;;;;4995858;28;20059;-69
2022/01/28 03:41:41;;;;;;;13.35;6.70;;;;;;;;;;4995626;28;20054;-71
2022/01/28 03:44:08;;;;;;;12.20;6.25;;;;;;;;;;4995492;28;20137;-68
2022/01/28 03:46:35;;;;;;;14.77;5.90;;;;;;;;;;4995037;28;20046;-68
2022/01/28 03:49:03;;;;;;;13.50;6.38;;;;;;;;;;4995036;28;20054;-69
2022/01/28 03:51:30;;;;;;;12.85;6.22;;;;;;;;;;4995186;28;20051;-69
2022/01/28 03:53:57;;;;;;;10.88;6.05;;;;;;;;;;4995383;28;20054;-68
2022/01/28 03:56:25;;;;;;;13.70;6.38;;;;;;;;;;4995133;28;20057;-71
2022/01/28 03:58:53;;;;;;;10.70;5.50;;;;;;;;;;4995199;28;20051;-69
2022/01/28 04:01:25;;;;;;;11.13;6.20;;;;;;;;;;4995129;28;20054;-69
2022/01/28 04:04:23;;;;;;;12.05;6.53;;;;;;;;;;4994802;28;20427;-68
2022/01/28 04:12:18;;;;;;;10.77;5.22;;;;;;;;;;4995136;28;20057;-69
2022/01/28 04:15:00;;;;;;;12.82;6.53;;;;;;;;;;4995233;28;20142;-69
2022/01/28 04:17:28;;;;;;;12.88;5.93;;;;;;;;;;4994530;28;20054;-69
2022/01/28 04:19:54;;;;;;;12.70;5.80;;;;;;;;;;4994891;28;20542;-70
2022/01/28 04:22:22;;;;;;;11.40;5.45;;;;;;;;;;4994982;28;20051;-69
2022/01/28 04:24:50;;;;;;;12.35;5.97;;;;;;;;;;4994716;28;20051;-70
2022/01/28 04:27:17;;;;;;;11.98;5.43;;;;;;;;;;4994282;28;20054;-69
2022/01/28 04:29:44;;;;;;;13.50;6.60;;;;;;;;;;4994621;28;20129;-69
2022/01/28 04:32:13;;;;;;;13.63;6.00;;;;;;;;;;4994498;28;20082;-69
2022/01/28 04:34:41;;;;;;;10.60;5.47;;;;;;;;;;4994690;28;20051;-69
2022/01/28 04:37:17;;;;;;;11.60;5.95;;;;;;;;;;4994322;28;20101;-69
2022/01/28 04:39:50;;;;;;;11.40;5.68;;;;;;;;;;4995088;28;20404;-69
2022/01/28 04:42:31;;;;;;;10.68;5.57;;;;;;;;;;4994732;28;20054;-68
2022/01/28 04:45:04;;;;;;;12.68;5.90;;;;;;;;;;4994340;28;20058;-69
2022/01/28 04:47:40;;;;;;;11.70;5.78;;;;;;;;;;4993950;28;20057;-69
2022/01/28 04:50:15;;;;;;;11.02;5.28;;;;;;;;;;4994211;28;20101;-69
2022/01/28 04:55:48;;;;;;;11.68;6.07;;;;;;;;;;4994222;28;20104;-69
2022/01/28 04:58:31;;;;;;;11.43;5.53;;;;;;;;;;4993691;28;20054;-69
2022/01/28 05:01:16;;;;;;;10.60;5.32;;;;;;;;;;4994014;28;20085;-69
2022/01/28 05:04:00;;;;;;;11.45;5.25;;;;;;;;;;4993929;28;20587;-69
2022/01/28 05:26:23;;;;;;;10.73;4.90;;;;;;;;;;4993721;28;20539;-69
2022/01/28 05:28:48;;;;;;;12.45;5.50;;;;;;;;;;4993032;28;20100;-69
2022/01/28 05:31:16;;;;;;;13.35;5.47;;;;;;;;;;4993204;28;20425;-69
2022/01/28 05:33:43;;;;;;;13.63;6.72;;;;;;;;;;4993368;28;20050;-70
2022/01/28 05:36:12;;;;;;;12.35;5.78;;;;;;;;;;4993569;28;20096;-69
2022/01/28 05:38:39;;;;;;;15.07;5.63;;;;;;;;;;4993024;28;20101;-68
2022/01/28 05:41:06;;;;;;;12.68;5.70;;;;;;;;;;4993331;28;20064;-70
2022/01/28 05:43:33;;;;;;;12.32;5.80;;;;;;;;;;4993106;28;20081;-69
2022/01/28 05:46:00;;;;;;;10.35;5.30;;;;;;;;;;4993226;28;20050;-68
2022/01/28 05:48:27;;;;;;;12.27;6.05;;;;;;;;;;4992791;28;20129;-69
2022/01/28 05:50:54;;;;;;;12.73;6.35;;;;;;;;;;4993122;28;20051;-69
2022/01/28 05:53:23;;;;;;;14.10;5.93;;;;;;;;;;4993298;28;20507;-69
2022/01/28 05:55:49;;;;;;;10.30;5.47;;;;;;;;;;4993357;28;20057;-69
2022/01/28 05:58:17;;;;;;;12.00;5.38;;;;;;;;;;4992741;28;20050;-70
2022/01/28 06:00:44;;;;;;;9.50;4.90;;;;;;;;;;4993304;28;20130;-70
2022/01/28 06:03:11;;;;;;;13.40;5.72;;;;;;;;;;4993356;28;20082;-70
2022/01/28 06:05:38;;;;;;;14.07;6.82;;;;;;;;;;4993432;28;20549;-70
2022/01/28 06:08:05;;;;;;;14.73;6.35;;;;;;;;;;4992846;28;20046;-70
2022/01/28 06:10:33;;;;;;;12.95;6.28;;;;;;;;;;4992858;28;20050;-69
2022/01/28 06:13:00;;;;;;;13.57;6.30;;;;;;;;;;4992802;28;20057;-69
2022/01/28 06:15:27;;;;;;;15.13;5.65;;;;;;;;;;4993149;28;20054;-69
2022/01/28 06:17:54;;;;;;;14.88;6.28;;;;;;;;;;4992592;28;20133;-69
2022/01/28 06:20:21;;;;;;;13.90;5.72;;;;;;;;;;4992661;28;20046;-69
2022/01/28 06:22:49;;;;;;;13.48;6.38;;;;;;;;;;4992695;28;20046;-69
2022/01/28 06:25:16;;;;;;;15.15;6.03;;;;;;;;;;4992840;28;20077;-70
2022/01/28 06:27:45;;;;;;;14.20;6.18;;;;;;;;;;4992064;28;20046;-70
2022/01/28 06:30:13;;;;;;;11.82;5.78;;;;;;;;;;4992609;28;20051;-70
2022/01/28 06:32:40;;;;;;;13.43;6.63;;;;;;;;;;4992909;28;20161;-70
2022/01/28 06:35:08;;;;;;;10.40;5.38;;;;;;;;;;4992464;28;20050;-69
2022/01/28 06:37:40;;;;;;;12.45;6.15;;;;;;;;;;4992148;28;20058;-71
2022/01/28 06:40:08;;;;;;;12.15;5.40;;;;;;;;;;4992381;28;20090;-69
2022/01/28 06:42:35;;;;;;;12.65;6.05;;;;;;;;;;4992380;28;20415;-70
2022/01/28 06:45:04;;;;;;;11.05;5.78;;;;;;;;;;4992221;28;20054;-70
2022/01/28 06:47:31;;;;;;;10.38;5.43;;;;;;;;;;4992213;28;20495;-69
2022/01/28 06:49:59;;;;;;;13.55;6.13;;;;;;;;;;4992375;28;20522;-69
2022/01/28 06:52:26;;;;;;;12.18;5.90;;;;;;;;;;4992548;28;20068;-71
2022/01/28 06:54:53;;;;;;;11.57;5.68;;;;;;;;;;4992461;28;20047;-70
2022/01/28 06:57:20;;;;;;;14.80;6.38;;;;;;;;;;4992372;28;20050;-69
2022/01/28 06:59:47;;;;;;;10.38;5.65;;;;;;;;;;4992464;28;20138;-70
2022/01/28 07:02:16;;;;;;;11.18;6.03;;;;;;;;;;4992555;28;20050;-69
2022/01/28 07:04:43;;;;;;;12.85;5.78;;;;;;;;;;4992554;28;20410;-71
2022/01/28 07:07:10;;;;;;;10.55;5.05;;;;;;;;;;4992246;28;20487;-69
2022/01/28 07:09:37;;;;;;;13.60;6.90;;;;;;;;;;4992383;28;20061;-70
2022/01/28 07:12:04;;;;;;;14.40;6.30;;;;;;;;;;4992325;28;20057;-70
2022/01/28 07:14:31;;;;;;;14.10;6.03;;;;;;;;;;4992435;28;20599;-69
2022/01/28 07:16:59;;;;;;;15.68;5.97;;;;;;;;;;4991845;28;20086;-69
2022/01/28 07:19:27;;;;;;;12.48;5.35;;;;;;;;;;4992230;28;20050;-70
2022/01/28 07:21:54;;;;;;;12.68;5.30;;;;;;;;;;4992095;28;20050;-69
2022/01/28 07:24:21;;;;;;;11.50;4.97;;;;;;;;;;4991978;28;20484;-68
2022/01/28 07:26:48;;;;;;;10.50;5.15;;;;;;;;;;4991930;28;20046;-68
2022/01/28 07:29:15;;;;;;;11.30;5.03;;;;;;;;;;4992386;28;20411;-68
2022/01/28 07:31:43;;;;;;;13.32;5.63;;;;;;;;;;4991847;28;20057;-69
2022/01/28 07:34:10;;;;;;;13.60;6.88;;;;;;;;;;4991901;28;20058;-70
2022/01/28 07:36:39;;;;;;;13.30;7.07;;;;;;;;;;4992103;28;20440;-69
2022/01/28 07:39:07;;;;;;;11.50;6.43;;;;;;;;;;4993190;28;20062;-69
2022/01/28 07:41:34;;;;;;;11.90;5.88;;;;;;;;;;4995702;28;20058;-70
2022/01/28 07:44:01;;;;;;;13.80;6.38;;;;;;;;;;4995870;28;20061;-69
2022/01/28 07:46:28;;;;;;;14.30;6.20;;;;;;;;;;4995465;28;20054;-70
2022/01/28 07:48:56;;;;;;;15.32;7.15;;;;;;;;;;4995766;28;20145;-69
2022/01/28 07:51:23;;;;;;;13.95;6.72;;;;;;;;;;4995360;28;20050;-69
2022/01/28 07:53:52;;;;;;;14.48;6.45;;;;;;;;;;4995831;28;20518;-69
2022/01/28 07:56:21;;;;;;;15.63;7.38;;;;;;;;;;4995407;28;20056;-69
2022/01/28 07:58:48;;;;;;;14.10;6.90;;;;;;;;;;4995485;28;20046;-70
2022/01/28 08:01:15;;;;;;;13.68;6.40;;;;;;;;;;4995496;28;20221;-70
2022/01/28 08:03:42;;;;;;;13.85;7.00;;;;;;;;;;4995605;28;20409;-70
2022/01/28 08:06:09;;;;;;;14.25;7.30;;;;;;;;;;4995712;28;20507;-69
2022/01/28 08:08:36;;;;;;;16.17;6.93;;;;;;;;;;4995216;28;20101;-69
2022/01/28 08:11:05;;;;;;;13.20;6.35;;;;;;;;;;4995222;28;20047;-69
2022/01/28 08:13:32;;;;;;;13.05;6.47;;;;;;;;;;4995397;28;20046;-70
2022/01/28 08:15:59;;;;;;;14.80;6.28;;;;;;;;;;4995216;28;20050;-69
2022/01/28 08:18:27;;;;;;;13.10;6.15;;;;;;;;;;4994725;28;20137;-70
2022/01/28 08:20:53;;;;;;;14.13;6.28;;;;;;;;;;4994880;28;20137;-69
2022/01/28 08:23:20;;;;;;;13.20;6.05;;;;;;;;;;4995130;28;20046;-69
2022/01/28 08:25:48;;;;;;;13.65;6.80;;;;;;;;;;4994849;28;20396;-70
2022/01/28 08:28:17;;;;;;;12.77;6.20;;;;;;;;;;4994291;28;20056;-71
2022/01/28 08:30:44;;;;;;;13.55;6.18;;;;;;;;;;4994650;28;20050;-69
2022/01/28 08:33:11;;;;;;;12.73;6.70;;;;;;;;;;4995026;28;20149;-69
2022/01/28 08:35:39;;;;;;;12.88;6.35;;;;;;;;;;4994790;28;20054;-70
2022/01/28 08:38:15;;;;;;;13.73;6.18;;;;;;;;;;4994515;28;20169;-70
2022/01/28 08:40:42;;;;;;;15.25;7.03;;;;;;;;;;4994519;28;20093;-70
2022/01/28 08:43:09;;;;;;;10.18;5.32;;;;;;;;;;4994538;28;20061;-69
2022/01/28 08:45:37;;;;;;;11.40;5.65;;;;;;;;;;4994423;28;20052;-71
2022/01/28 08:48:05;;;;;;;13.80;5.78;;;;;;;;;;5020666;23;20054;-78
2022/01/28 08:50:32;;;;;;;10.85;5.72;;;;;;;;;;5013803;28;20034;-79
2022/01/28 08:52:58;;;;;;;12.10;5.85;;;;;;;;;;5006182;28;20109;-79
2022/01/28 08:55:26;;;;;;;13.50;5.63;;;;;;;;;;5004201;28;20488;-79
2022/01/28 08:57:53;;;;;;;12.90;5.70;;;;;;;;;;5002439;28;20057;-80
2022/01/28 09:00:22;;;;;;;17.00;6.97;;;;;;;;;;5003979;28;20054;-79
2022/01/28 09:02:50;;;;;;;11.63;5.97;;;;;;;;;;5001371;28;20438;-80
2022/01/28 09:05:18;;;;;;;16.63;5.75;;;;;;;;;;5000384;28;20114;-82
2022/01/28 09:07:45;;;;;;;10.60;5.00;;;;;;;;;;5000794;28;20042;-80
2022/01/28 09:10:18;;;;;;;14.55;5.63;;;;;;;;;;5001192;28;20457;-81
2022/01/28 09:12:49;;;;;;;10.68;5.28;;;;;;;;;;5000948;28;20065;-82
2022/01/28 09:15:17;;;;;;;12.77;5.13;;;;;;;;;;5010608;28;20095;-79
2022/01/28 09:17:44;;;;;;;10.40;5.70;;;;;;;;;;5018435;28;20038;-79
2022/01/28 09:20:13;;;;;;;11.52;5.47;;;;;;;;;;5010461;28;20130;-82
2022/01/28 09:22:39;;;;;;;10.18;4.97;;;;;;;;;;5004742;28;20189;-82
2022/01/28 09:25:07;;;;;;;10.48;5.68;;;;;;;;;;5003805;28;20489;-83
2022/01/28 09:27:35;;;;;;;10.18;5.32;;;;;;;;;;5002172;28;20047;-82
2022/01/28 09:30:02;;;;;;;9.57;4.88;;;;;;;;;;5001251;28;20066;-82
2022/01/28 09:32:28;;;;;;;12.45;5.55;;;;;;;;;;5003333;28;20046;-83
2022/01/28 09:34:55;;;;;;;8.75;4.50;;;;;;;;;;5001192;28;20043;-83
2022/01/28 09:37:23;;;;;;;12.35;5.30;;;;;;;;;;5001641;28;20477;-81
2022/01/28 09:39:50;;;;;;;13.48;6.32;;;;;;;;;;5001419;28;20048;-82
2022/01/28 09:42:21;;;;;;;12.27;5.65;;;;;;;;;;5001423;28;20089;-83
2022/01/28 09:44:48;;;;;;;12.55;4.90;;;;;;;;;;5000099;28;20054;-81
2022/01/28 09:47:16;;;;;;;9.07;4.80;;;;;;;;;;5000263;28;20053;-84
2022/01/28 09:49:44;;;;;;;10.15;4.57;;;;;;;;;;4998596;28;20053;-81
2022/01/28 09:52:12;;;;;;;10.73;4.65;;;;;;;;;;4999296;28;20057;-82
2022/01/28 09:54:43;;;;;;;9.10;4.72;;;;;;;;;;5000012;28;20073;-81
2022/01/28 09:57:10;;;;;;;9.48;4.70;;;;;;;;;;5000424;28;20050;-81
2022/01/28 09:59:38;;;;;;;8.88;4.85;;;;;;;;;;5000707;28;20085;-82
2022/01/28 10:02:06;;;;;;;13.35;5.53;;;;;;;;;;4999590;28;20477;-82
2022/01/28 10:04:33;;;;;;;8.32;4.50;;;;;;;;;;4999543;28;20081;-81
2022/01/28 10:07:09;;;;;;;9.30;4.53;;;;;;;;;;4998955;28;20043;-82
2022/01/28 10:09:36;;;;;;;10.10;4.28;;;;;;;;;;4999205;28;20046;-82
2022/01/28 10:12:19;;;;;;;9.43;4.50;;;;;;;;;;5000791;28;20105;-81
2022/01/28 10:15:02;;;;;;;11.00;4.93;;;;;;;;;;5000684;28;20054;-82
2022/01/28 10:17:50;;;;;;;10.38;3.90;;;;;;;;;;5017311;28;20030;-79
2022/01/28 10:20:30;;;;;;;10.07;4.43;;;;;;;;;;5018525;28;20043;-78
2022/01/28 10:23:01;;;;;;;9.18;4.00;;;;;;;;;;5018230;28;20091;-79
2022/01/28 10:25:36;;;;;;;;;;;;;;;;;;5018903;28;20050;-79
2022/01/28 10:28:08;;;;;;;10.10;3.83;;;;;;;;;;5017533;28;19981;-78
2022/01/28 10:30:38;;;;;;;9.00;4.10;;;;;;;;;;5017762;28;20069;-78
2022/01/28 10:33:16;;;;;;;7.60;3.53;;;;;;;;;;5017769;28;20069;-79
2022/01/28 10:35:50;;;;;;;8.38;3.63;;;;;;;;;;5017440;28;20057;-79
2022/01/28 10:38:34;;;;;;;8.43;4.55;;;;;;;;;;5017182;28;20054;-78
2022/01/28 10:41:13;;;;;;;6.78;3.72;;;;;;;;;;5017578;28;20042;-78
2022/01/28 10:43:49;;;;;;;8.27;4.07;;;;;;;;;;5016871;28;20038;-78
2022/01/28 10:46:22;;;;;;;8.70;5.82;;;;;;;;;;5017216;28;20050;-79
2022/01/28 10:48:54;;;;;;;10.93;4.05;;;;;;;;;;5016546;28;20073;-79
2022/01/28 10:51:22;;;;;;;10.27;4.55;;;;;;;;;;5016762;28;20065;-79
2022/01/28 10:54:06;;;;;;;8.02;4.13;;;;;;;;;;4999442;28;20047;-80
2022/01/28 10:56:47;;;;;;;7.68;3.75;;;;;;;;;;4998914;28;20448;-80
2022/01/28 10:59:19;;;;;;;10.73;4.72;;;;;;;;;;4999406;28;20101;-80
2022/01/28 11:01:47;;;;;;;7.72;3.70;;;;;;;;;;5000200;28;20057;-79
2022/01/28 11:04:16;;;;;;;8.98;4.00;;;;;;;;;;5003439;28;20057;-80
2022/01/28 11:06:45;;;;;;;5.38;3.15;;;;;;;;;;5001131;28;20050;-79
2022/01/28 11:09:13;;;;;;;7.60;3.53;;;;;;;;;;5001012;28;20047;-78
2022/01/28 11:11:41;;;;;;;7.70;3.90;;;;;;;;;;5002388;28;20413;-78
2022/01/28 11:14:08;;;;;;;8.38;3.50;;;;;;;;;;4999036;28;20050;-80
2022/01/28 11:16:37;;;;;;;5.43;2.70;;;;;;;;;;5001073;28;20058;-81
2022/01/28 11:19:05;;;;;;;8.80;3.78;;;;;;;;;;5002024;28;20512;-80
2022/01/28 11:21:44;;;;;;;7.50;3.58;;;;;;;;;;5003133;28;20050;-80
2022/01/28 11:24:21;;;;;;;7.05;2.83;;;;;;;;;;5001539;28;20064;-79
2022/01/28 11:26:55;;;;;;;7.90;2.70;;;;;;;;;;5006496;28;20152;-80
2022/01/28 11:29:25;;;;;;;7.35;3.08;;;;;;;;;;5004210;28;20109;-80
2022/01/28 11:31:58;;;;;;;6.63;2.92;;;;;;;;;;5010486;28;20031;-80
2022/01/28 11:34:27;;;;;;;8.52;2.22;;;;;;;;;;5020855;28;20034;-79
2022/01/28 11:36:55;;;;;;;6.28;2.53;;;;;;;;;;5016125;28;20050;-80
2022/01/28 11:39:30;;;;;;;7.70;2.58;;;;;;;;;;5003445;28;20042;-80
2022/01/28 11:42:06;;;;;;;7.68;2.55;;;;;;;;;;5006866;28;20055;-80
2022/01/28 11:44:44;;;;;;;6.07;2.92;;;;;;;;;;5006760;28;20530;-81
2022/01/28 11:47:22;;;;;;;6.68;2.58;;;;;;;;;;5005370;28;20485;-81
2022/01/28 11:49:57;;;;;;;5.10;2.15;;;;;;;;;;5007221;28;20046;-81
2022/01/28 11:52:30;;;;;;;8.07;3.13;;;;;;;;;;5005782;28;20102;-81
2022/01/28 11:54:58;;;;;;;6.07;2.35;;;;;;;;;;5000212;28;20505;-80
2022/01/28 11:57:26;;;;;;;7.25;3.05;;;;;;;;;;5001114;28;20054;-82
2022/01/28 12:00:20;;;;;;;9.93;2.92;;;;;;;;;;5002527;28;20153;-80
2022/01/28 12:02:50;;;;;;;5.85;2.42;;;;;;;;;;5011390;28;20081;-81
2022/01/28 12:05:47;;;;;;;5.22;2.30;;;;;;;;;;5005188;28;20588;-80
2022/01/28 12:08:16;;;;;;;7.18;2.58;;;;;;;;;;5005437;28;20050;-82
2022/01/28 12:10:45;;;;;;;4.70;2.10;;;;;;;;;;5006326;28;20046;-81
2022/01/28 12:13:17;;;;;;;6.45;2.80;;;;;;;;;;5008284;28;20050;-81
2022/01/28 12:16:02;;;;;;;6.25;2.30;;;;;;;;;;5019873;28;20050;-77
2022/01/28 12:18:49;;;;;;;4.60;2.22;;;;;;;;;;5019940;28;20046;-76
2022/01/28 12:21:17;;;;;;;8.10;2.10;;;;;;;;;;5020536;28;20034;-77
2022/01/28 12:23:45;;;;;;;6.10;2.50;;;;;;;;;;5012529;28;20057;-81
2022/01/28 12:26:14;;;;;;;5.80;2.47;;;;;;;;;;5005747;28;20551;-80
2022/01/28 12:28:46;;;;;;;6.15;2.88;;;;;;;;;;5004178;28;20421;-80
2022/01/28 12:31:17;;;;;;;7.35;2.50;;;;;;;;;;5007516;28;20046;-81
2022/01/28 12:33:47;;;;;;;8.35;2.58;;;;;;;;;;5004435;28;20049;-79
2022/01/28 12:36:16;;;;;;;6.78;2.50;;;;;;;;;;5007771;28;20109;-82
2022/01/28 12:38:56;;;;;;;7.30;2.42;;;;;;;;;;5009459;28;20050;-81
2022/01/28 12:41:24;;;;;;;6.00;3.00;;;;;;;;;;5012094;28;20073;-79
2022/01/28 12:43:51;;;;;;;6.10;2.28;;;;;;;;;;5011866;28;20293;-78
2022/01/28 12:46:18;;;;;;;9.38;3.17;;;;;;;;;;5009219;28;20050;-78
2022/01/28 12:48:51;;;;;;;5.90;2.80;;;;;;;;;;5008835;28;20042;-80
2022/01/28 12:51:21;;;;;;;8.45;2.58;;;;;;;;;;5015718;28;20049;-79
2022/01/28 12:53:54;;;;;;;6.53;2.38;;;;;;;;;;5015474;28;20050;-80
2022/01/28 12:56:30;;;;;;;8.02;3.10;;;;;;;;;;5017141;28;20065;-79
2022/01/28 12:58:57;;;;;;;7.85;2.92;;;;;;;;;;5011712;28;20057;-78
2022/01/28 13:01:24;;;;;;;9.77;3.00;;;;;;;;;;5015863;28;20051;-81
2022/01/28 13:04:05;;;;;;;6.63;2.70;;;;;;;;;;5015881;28;20046;-79
2022/01/28 13:07:00;;;;;;;7.78;3.15;;;;;;;;;;5015711;28;20056;-78
2022/01/28 13:09:27;;;;;;;5.68;2.40;;;;;;;;;;5015285;28;20081;-81
2022/01/28 13:11:56;;;;;;;7.07;3.70;;;;;;;;;;5015063;28;20050;-80
2022/01/28 13:14:30;;;;;;;6.82;3.47;;;;;;;;;;5014923;28;20324;-80
2022/01/28 13:16:57;;;;;;;8.90;2.80;;;;;;;;;;5014646;28;20054;-79
2022/01/28 13:19:27;;;;;;;4.47;2.10;;;;;;;;;;5015302;28;20050;-79
2022/01/28 13:21:55;;;;;;;5.75;1.92;;;;;;;;;;5015429;28;20049;-80
2022/01/28 13:24:23;;;;;;;6.43;2.45;;;;;;;;;;5015590;28;20055;-79
2022/01/28 13:27:02;;;;;;;7.68;2.40;;;;;;;;;;5014720;28;20074;-80
2022/01/28 13:29:32;;;;;;;5.47;2.65;;;;;;;;;;5013445;28;20046;-79
2022/01/28 13:32:00;;;;;;;5.78;2.85;;;;;;;;;;5014631;28;20057;-80
2022/01/28 13:34:28;;;;;;;4.75;2.38;;;;;;;;;;5014635;28;20054;-82
2022/01/28 13:36:58;;;;;;;6.78;2.90;;;;;;;;;;5013426;28;20050;-78
2022/01/28 13:39:28;;;;;;;7.03;3.25;;;;;;;;;;5012786;28;20106;-81
2022/01/28 13:42:09;;;;;;;6.68;2.90;;;;;;;;;;5014319;28;20115;-78
2022/01/28 13:44:38;;;;;;;4.30;2.10;;;;;;;;;;5010641;28;20046;-80
2022/01/28 13:47:06;;;;;;;5.32;2.55;;;;;;;;;;5006906;28;20072;-81
2022/01/28 13:49:36;;;;;;;5.72;2.40;;;;;;;;;;5005546;28;20065;-78
2022/01/28 13:52:17;;;;;;;6.35;2.33;;;;;;;;;;5005631;28;20057;-81
2022/01/28 13:54:45;;;;;;;3.85;1.73;;;;;;;;;;5006971;28;20073;-80
2022/01/28 13:57:13;;;;;;;4.47;2.00;;;;;;;;;;5006464;28;20053;-80
2022/01/28 13:59:43;;;;;;;4.65;1.98;;;;;;;;;;5007241;28;20520;-80
2022/01/28 14:02:17;;;;;;;7.38;2.05;;;;;;;;;;5007905;28;20053;-79
2022/01/28 14:04:47;;;;;;;6.38;1.95;;;;;;;;;;5007661;28;20050;-80
2022/01/28 14:07:19;;;;;;;7.75;1.88;;;;;;;;;;5005732;28;20050;-81
2022/01/28 14:09:54;;;;;;;6.97;2.30;;;;;;;;;;5001670;28;20572;-81
2022/01/28 14:12:36;;;;;;;7.38;3.45;;;;;;;;;;5001413;28;20413;-82
2022/01/28 14:15:12;;;;;;;8.93;2.60;;;;;;;;;;5002976;28;20042;-81
2022/01/28 14:17:40;;;;;;;5.40;2.35;;;;;;;;;;5002076;28;20046;-81
2022/01/28 14:20:10;;;;;;;8.20;2.28;;;;;;;;;;4997898;28;20070;-82
2022/01/28 14:22:36;;;;;;;4.68;1.58;;;;;;;;;;5011268;28;20061;-82
2022/01/28 14:25:04;;;;;;;5.90;2.28;;;;;;;;;;5005266;28;20051;-82
2022/01/28 14:27:59;;;;;;;9.32;2.50;;;;;;;;;;4998884;28;20046;-83
2022/01/28 14:30:36;;;;;;;4.82;1.70;;;;;;;;;;5000836;28;20050;-82
2022/01/28 14:33:04;;;;;;;4.25;1.58;;;;;;;;;;5005768;28;20081;-82
2022/01/28 14:35:32;;;;;;;5.10;1.83;;;;;;;;;;5000684;28;20520;-81
2022/01/28 14:37:59;;;;;;;7.00;1.90;;;;;;;;;;4995846;28;20046;-81
2022/01/28 14:40:26;;;;;;;5.78;1.95;;;;;;;;;;4995894;28;20516;-82
2022/01/28 14:42:53;;;;;;;7.50;3.40;;;;;;;;;;4997511;28;20054;-81
2022/01/28 14:45:20;;;;;;;6.22;2.20;;;;;;;;;;4996844;28;20527;-81
2022/01/28 14:47:47;;;;;;;7.22;2.10;;;;;;;;;;5023622;23;20100;-59
2022/01/28 14:50:14;;;;;;;6.90;1.98;;;;;;;;;;4996725;28;20050;-61
2022/01/28 14:52:43;;;;;;;9.98;2.25;;;;;;;;;;4996801;28;20046;-63
2022/01/28 14:55:10;;;;;;;5.20;1.95;;;;;;;;;;4996823;28;20058;-61
2022/01/28 14:57:37;;;;;;;7.35;2.78;;;;;;;;;;4996686;28;20053;-61
2022/01/28 15:00:06;;;;;;;4.88;2.45;;;;;;;;;;4997000;28;20054;-60
2022/01/28 15:02:33;;;;;;;6.30;2.45;;;;;;;;;;4996973;28;20064;-59
2022/01/28 15:05:01;;;;;;;5.03;2.22;;;;;;;;;;4996770;28;20050;-60
2022/01/28 15:07:31;;;;;;;4.25;2.33;;;;;;;;;;4996418;28;20097;-60
2022/01/28 15:10:01;;;;;;;4.85;2.53;;;;;;;;;;4996569;28;20089;-61
2022/01/28 15:12:30;;;;;;;6.00;2.22;;;;;;;;;;4996463;28;20055;-61
2022/01/28 15:14:57;;;;;;;6.55;2.90;;;;;;;;;;4996356;28;20054;-60
2022/01/28 15:17:26;;;;;;;6.45;2.30;;;;;;;;;;4996093;28;20061;-59
2022/01/28 15:19:53;;;;;;;5.20;2.80;;;;;;;;;;4996453;28;20051;-61
2022/01/28 15:22:20;;;;;;;7.28;2.67;;;;;;;;;;4996230;28;20061;-60
2022/01/28 15:24:47;;;;;;;5.72;2.67;;;;;;;;;;4996259;28;20057;-59
2022/01/28 15:27:16;;;;;;;6.28;2.40;;;;;;;;;;4995889;28;20056;-61
2022/01/28 15:29:59;;;;;;;7.22;2.70;;;;;;;;;;4996227;28;20060;-62
2022/01/28 15:37:51;;;;;;;7.57;3.40;;;;;;;;;;4990850;28;20161;-60
2022/01/28 15:40:19;;;;;;;5.97;2.58;;;;;;;;;;4995890;28;20547;-61
2022/01/28 15:42:50;;;;;;;8.88;3.53;;;;;;;;;;4995748;28;20054;-61
2022/01/28 15:45:17;;;;;;;6.65;3.10;;;;;;;;;;4995742;28;20098;-60
2022/01/28 15:47:44;;;;;;;6.15;2.53;;;;;;;;;;4995272;28;20054;-59
2022/01/28 15:50:13;;;;;;;10.30;3.38;;;;;;;;;;4996082;28;20515;-60
2022/01/28 15:52:40;;;;;;;6.75;3.20;;;;;;;;;;4995734;28;20050;-60
2022/01/28 15:55:08;;;;;;;8.32;3.75;;;;;;;;;;4995825;28;20054;-59
2022/01/28 15:57:35;;;;;;;9.65;4.20;;;;;;;;;;4995198;28;20046;-61
2022/01/28 16:00:05;;;;;;;7.80;3.15;;;;;;;;;;4994515;28;20061;-61